createdAt,value
2022-11-29T00:02:28.912Z,3.59
2022-11-29T00:07:32.960Z,3.23
2022-11-29T00:12:37.158Z,3.47
2022-11-29T00:17:42.860Z,3.20
2022-11-29T00:22:47.044Z,3.29
2022-11-29T00:27:54.141Z,3.38
2022-11-29T00:32:59.621Z,3.41
2022-11-29T00:38:03.540Z,3.47
2022-11-29T00:43:07.466Z,3.63
2022-11-29T00:48:12.893Z,3.47
2022-11-29T00:53:17.023Z,3.43
2022-11-29T00:58:21.754Z,3.48
2022-11-29T01:03:28.600Z,3.32
2022-11-29T01:08:33.438Z,3.22
2022-11-29T01:13:37.706Z,3.18
2022-11-29T01:18:44.199Z,3.28
2022-11-29T01:23:49.833Z,3.32
2022-11-29T01:28:55.289Z,3.38
2022-11-29T01:34:03.812Z,2.95
2022-11-29T01:39:09.078Z,2.70
2022-11-29T01:44:47.490Z,2.66
2022-11-29T01:49:53.011Z,2.61
2022-11-29T01:54:59.755Z,2.83
2022-11-29T02:00:08.841Z,2.70
2022-11-29T02:05:22.258Z,2.56
2022-11-29T02:10:39.946Z,2.75
2022-11-29T02:15:53.255Z,2.92
2022-11-29T02:21:28.674Z,2.83
2022-11-29T02:27:04.820Z,2.87
2022-11-29T02:33:00.704Z,3.04
2022-11-29T02:38:32.171Z,3.28
2022-11-29T02:44:08.730Z,3.19
2022-11-29T02:49:22.439Z,3.19
2022-11-29T02:54:36.011Z,3.15
2022-11-29T02:59:49.501Z,3.11
2022-11-29T03:05:01.201Z,3.33
2022-11-29T03:10:15.341Z,3.45
2022-11-29T03:15:28.552Z,3.38
2022-11-29T03:20:46.416Z,3.61
2022-11-29T03:25:58.602Z,3.76
2022-11-29T03:31:08.600Z,3.52
2022-11-29T03:36:20.287Z,3.71
2022-11-29T03:41:32.465Z,3.77
2022-11-29T03:46:43.837Z,3.62
2022-11-29T03:52:00.110Z,3.46
2022-11-29T03:57:06.198Z,3.23
2022-11-29T04:03:03.118Z,2.97
2022-11-29T04:08:28.523Z,2.97
2022-11-29T04:14:11.569Z,2.97
2022-11-29T04:19:46.777Z,2.95
2022-11-29T04:25:30.669Z,3.12
2022-11-29T04:30:46.238Z,3.01
2022-11-29T04:36:06.627Z,3.18
2022-11-29T04:41:34.212Z,3.14
2022-11-29T04:46:58.020Z,3.07
2022-11-29T04:52:31.259Z,3.24
2022-11-29T04:57:40.678Z,3.01
2022-11-29T05:02:55.813Z,2.82
2022-11-29T05:08:21.465Z,2.65
2022-11-29T05:13:35.408Z,2.85
2022-11-29T05:19:13.169Z,3.06
2022-11-29T05:24:29.912Z,3.07
2022-11-29T05:29:42.636Z,3.19
2022-11-29T05:35:22.935Z,3.23
2022-11-29T05:40:46.197Z,3.34
2022-11-29T05:45:56.995Z,3.21
2022-11-29T05:51:16.115Z,2.98
2022-11-29T05:56:35.804Z,3.06
2022-11-29T06:01:49.634Z,2.98
2022-11-29T06:07:04.570Z,3.01
2022-11-29T06:12:19.620Z,3.02
2022-11-29T06:17:47.516Z,3.37
2022-11-29T06:23:24.975Z,3.51
2022-11-29T06:28:42.831Z,3.28
2022-11-29T06:33:59.798Z,3.22
2022-11-29T06:39:04.699Z,3.67
2022-11-29T06:44:12.068Z,3.39
2022-11-29T06:49:24.575Z,3.39
2022-11-29T06:54:41.531Z,3.62
2022-11-29T06:59:58.469Z,3.76
2022-11-29T07:05:14.209Z,3.84
2022-11-29T07:10:20.497Z,3.84
2022-11-29T07:15:28.210Z,3.89
2022-11-29T07:20:40.636Z,4.00
2022-11-29T07:25:57.275Z,3.96
2022-11-29T07:31:10.976Z,3.90
2022-11-29T07:36:22.856Z,3.94
2022-11-29T07:41:37.079Z,3.88
2022-11-29T07:46:43.935Z,3.81
2022-11-29T07:51:47.987Z,3.54
2022-11-29T07:56:51.937Z,3.73
2022-11-29T08:01:58.933Z,3.89
2022-11-29T08:07:03.192Z,3.79
2022-11-29T08:12:07.584Z,3.89
2022-11-29T08:17:13.769Z,3.90
2022-11-29T08:22:17.794Z,4.07
2022-11-29T08:27:24.886Z,3.85
2022-11-29T08:32:30.340Z,3.73
2022-11-29T08:37:34.734Z,3.67
2022-11-29T08:42:38.758Z,3.79
2022-11-29T08:47:44.890Z,3.88
2022-11-29T08:53:07.944Z,3.90
2022-11-29T08:58:14.419Z,3.96
2022-11-29T09:03:37.272Z,4.04
2022-11-29T09:08:43.708Z,4.01
2022-11-29T09:13:50.487Z,4.32
2022-11-29T09:18:56.082Z,4.14
2022-11-29T09:24:01.497Z,4.08
2022-11-29T09:29:07.593Z,4.15
2022-11-29T09:34:15.562Z,4.27
2022-11-29T09:39:19.578Z,4.13
2022-11-29T09:44:30.418Z,4.08
2022-11-29T09:50:04.826Z,4.37
2022-11-29T09:55:25.229Z,4.40
2022-11-29T10:00:31.927Z,4.66
2022-11-29T10:05:44.237Z,4.53
2022-11-29T10:10:52.109Z,4.29
2022-11-29T10:16:00.770Z,4.46
2022-11-29T10:21:11.744Z,4.64
2022-11-29T10:26:16.188Z,4.44
2022-11-29T10:31:25.189Z,4.53
2022-11-29T10:36:35.775Z,4.45
2022-11-29T10:41:40.324Z,4.53
2022-11-29T10:46:44.439Z,4.42
2022-11-29T10:51:49.748Z,4.54
2022-11-29T10:56:54.769Z,4.46
2022-11-29T11:02:00.571Z,4.60
2022-11-29T11:07:07.955Z,4.55
2022-11-29T11:12:23.447Z,4.51
2022-11-29T11:17:32.760Z,4.50
2022-11-29T11:22:40.022Z,4.44
2022-11-29T11:27:44.277Z,4.53
2022-11-29T11:33:09.881Z,4.72
2022-11-29T11:38:20.031Z,4.67
2022-11-29T11:43:24.450Z,4.94
2022-11-29T11:48:29.083Z,4.88
2022-11-29T11:53:37.984Z,4.99
2022-11-29T11:58:51.581Z,5.06
2022-11-29T12:04:03.901Z,5.02
2022-11-29T12:09:18.874Z,5.27
2022-11-29T12:14:34.129Z,4.94
2022-11-29T12:19:49.094Z,5.06
2022-11-29T12:25:01.327Z,5.12
2022-11-29T12:30:13.940Z,5.17
2022-11-29T12:35:40.483Z,4.95
2022-11-29T12:40:55.292Z,5.36
2022-11-29T12:46:09.487Z,5.10
2022-11-29T12:51:19.876Z,5.17
2022-11-29T12:56:28.821Z,5.27
2022-11-29T13:01:40.852Z,4.93
2022-11-29T13:06:54.330Z,4.89
2022-11-29T13:12:06.574Z,4.90
2022-11-29T13:17:23.847Z,4.85
2022-11-29T13:22:37.040Z,4.86
2022-11-29T13:27:56.211Z,4.99
2022-11-29T13:33:06.410Z,5.03
2022-11-29T13:38:19.909Z,4.91
2022-11-29T13:43:31.621Z,5.01
2022-11-29T13:48:47.068Z,4.90
2022-11-29T13:53:51.820Z,4.76
2022-11-29T13:58:59.057Z,4.82
2022-11-29T14:04:08.026Z,4.77
2022-11-29T14:09:25.959Z,4.73
2022-11-29T14:14:36.787Z,4.78
2022-11-29T14:19:40.808Z,4.82
2022-11-29T14:24:58.716Z,4.72
2022-11-29T14:30:04.201Z,4.74
2022-11-29T14:35:18.074Z,4.70
2022-11-29T14:40:32.749Z,4.58
2022-11-29T14:45:38.879Z,4.60
2022-11-29T14:50:43.993Z,4.64
2022-11-29T14:55:48.720Z,4.53
2022-11-29T15:01:08.192Z,4.59
2022-11-29T15:06:24.351Z,4.56
2022-11-29T15:11:37.922Z,4.66
2022-11-29T15:17:09.338Z,4.62
2022-11-29T15:22:19.234Z,4.68
2022-11-29T15:27:24.801Z,4.58
2022-11-29T15:32:33.090Z,4.53
2022-11-29T15:37:44.722Z,4.64
2022-11-29T15:42:53.540Z,4.55
2022-11-29T15:48:15.792Z,4.63
2022-11-29T15:53:26.916Z,4.58
2022-11-29T15:58:34.541Z,4.61
2022-11-29T16:03:42.530Z,4.72
2022-11-29T16:08:47.597Z,4.62
2022-11-29T16:14:18.126Z,4.52
2022-11-29T16:19:33.128Z,4.76
2022-11-29T16:24:39.842Z,4.74
2022-11-29T16:29:46.671Z,4.51
2022-11-29T16:34:53.735Z,4.46
2022-11-29T16:40:01.415Z,4.55
2022-11-29T16:45:34.409Z,4.48
2022-11-29T16:50:41.062Z,4.53
2022-11-29T16:55:46.742Z,4.73
2022-11-29T17:00:50.735Z,4.68
2022-11-29T17:05:56.616Z,4.60
2022-11-29T17:11:01.423Z,4.60
2022-11-29T17:16:08.727Z,4.78
2022-11-29T17:21:22.804Z,4.92
2022-11-29T17:26:26.882Z,4.97
2022-11-29T17:31:32.783Z,4.78
2022-11-29T17:36:39.551Z,4.92
2022-11-29T17:41:43.667Z,4.72
2022-11-29T17:46:49.039Z,4.61
2022-11-29T17:51:57.081Z,4.54
2022-11-29T17:57:03.764Z,4.79
2022-11-29T18:02:08.262Z,4.68
2022-11-29T18:07:15.899Z,4.85
2022-11-29T18:12:23.692Z,4.62
2022-11-29T18:17:27.772Z,4.71
2022-11-29T18:22:34.195Z,4.60
2022-11-29T18:27:38.455Z,4.55
2022-11-29T18:32:46.968Z,4.54
2022-11-29T18:43:18.294Z,4.69
2022-11-29T18:48:22.755Z,4.69
2022-11-29T18:53:29.082Z,4.73
2022-11-29T18:58:33.360Z,4.84
2022-11-29T19:03:39.377Z,4.66
2022-11-29T19:08:47.206Z,4.56
2022-11-29T19:13:56.662Z,4.74
2022-11-29T19:19:04.846Z,4.75
2022-11-29T19:24:17.488Z,4.48
2022-11-29T19:29:21.588Z,4.47
2022-11-29T19:34:25.604Z,4.31
2022-11-29T19:39:31.328Z,4.16
2022-11-29T19:44:54.304Z,4.15
2022-11-29T19:50:02.495Z,4.32
2022-11-29T19:55:10.710Z,4.36
2022-11-29T20:00:25.288Z,4.35
2022-11-29T20:05:29.506Z,4.30
2022-11-29T20:10:36.755Z,4.33
2022-11-29T20:15:41.256Z,4.31
2022-11-29T20:20:45.279Z,4.28
2022-11-29T20:25:52.219Z,4.30
2022-11-29T20:30:56.842Z,4.59
2022-11-29T20:36:15.621Z,4.64
2022-11-29T20:41:26.672Z,4.74
2022-11-29T20:46:32.759Z,4.76
2022-11-29T20:51:45.976Z,4.77
2022-11-29T20:56:51.558Z,4.55
2022-11-29T21:01:57.045Z,4.54
2022-11-29T21:07:02.135Z,4.67
2022-11-29T21:12:11.330Z,4.75
2022-11-29T21:17:18.765Z,4.71
2022-11-29T21:22:29.913Z,4.77
2022-11-29T21:27:36.642Z,4.88
2022-11-29T21:32:41.813Z,4.75
2022-11-29T21:37:46.314Z,4.64
2022-11-29T21:42:51.826Z,4.61
2022-11-29T21:47:56.138Z,4.51
2022-11-29T21:53:00.061Z,4.45
2022-11-29T21:58:05.430Z,4.39
2022-11-29T22:03:09.443Z,4.64
2022-11-29T22:08:14.195Z,4.63
2022-11-29T22:13:19.558Z,4.60
2022-11-29T22:18:27.105Z,4.46
2022-11-29T22:23:31.385Z,4.37
2022-11-29T22:28:37.263Z,4.27
2022-11-29T22:33:41.535Z,4.39
2022-11-29T22:38:45.896Z,4.48
2022-11-29T22:43:51.755Z,4.46
2022-11-29T22:48:57.009Z,4.43
2022-11-29T22:54:02.455Z,4.71
2022-11-29T22:59:07.951Z,4.76
2022-11-29T23:04:13.377Z,4.67
2022-11-29T23:09:21.184Z,4.74
2022-11-29T23:14:26.631Z,4.61
2022-11-29T23:19:30.831Z,4.52
2022-11-29T23:24:34.800Z,4.46
2022-11-29T23:29:40.224Z,4.43
2022-11-29T23:34:44.432Z,4.41
2022-11-29T23:39:48.628Z,4.59
2022-11-29T23:44:54.312Z,4.49
2022-11-29T23:49:58.298Z,4.63
2022-11-29T23:55:02.383Z,4.48
